KMMT/MMT METAR and TAF weather

Enter ICAO airport designator
Station Type Date Time Source
KMMT METAR 2019/04/19 10:06 UTC NOAA

KMMT 191006Z AUTO 15011KT 10SM BKN019 22/21 A2972 RMK AO2 SLP065 $


Station Type Date Time Source
KMMT Decoded METAR 2019/04/19 10:06 UTC NOAA

McEntire Air National Guard Weather Facility Base, SC, United States (KMMT) 33-55N 080-48W
Apr 19, 2019 - 06:06 AM EDT / 2019.04.19 1006 UTC
Wind: from the SSE (150 degrees) at 13 MPH (11 KT):0
Visibility: 10 mile(s):0
Sky conditions: mostly cloudy
Temperature: 71 F (22 C)
Dew Point: 69 F (21 C)
Relative Humidity: 94%
Pressure (altimeter): 29.72 in. Hg (1006 hPa)
ob: KMMT 191006Z AUTO 15011KT 10SM BKN019 22/21 A2972 RMK AO2 SLP065
cycle: 10

Station Type Date Time Source
KMMT TAF 2019/04/19 10:28 UTC NOAA

TAF
AMD KMMT 191029Z 1910/2013 17010G15KT 9999 SCT010 BKN019 WS020/19045KT QNH2969INS
TEMPO 1910/1913 BKN010
BECMG 1912/1913 17012G18KT 8000 -SHRA BKN006 540054 QNH2966INS
BECMG 1914/1915 17020G35KT 6000 -SHRA VCTS OVC015CB 540004 QNH2954INS
TEMPO 1918/1922 22025G50KT 1600 TSRAGR OVC015CB
BECMG 2002/2003 21012KT 9999 NSW BKN020 QNH2953INS TX28/1918Z TN19/1912Z

Example: see airport list